createdAt,value
2018-08-13T00:00:11.865Z,0.00
2018-08-13T00:01:11.882Z,0.00
2018-08-13T00:02:11.856Z,0.00
2018-08-13T00:03:11.850Z,0.00
2018-08-13T00:04:11.848Z,0.00
2018-08-13T00:05:11.850Z,0.00
2018-08-13T00:06:11.843Z,0.00
2018-08-13T00:07:11.853Z,0.00
2018-08-13T00:08:11.841Z,0.00
2018-08-13T00:09:11.841Z,0.00
2018-08-13T00:10:11.839Z,0.00
2018-08-13T00:11:11.834Z,0.00
2018-08-13T00:12:11.828Z,0.00
2018-08-13T00:13:11.825Z,0.00
2018-08-13T00:14:11.836Z,0.00
2018-08-13T00:15:11.826Z,0.00
2018-08-13T00:16:11.835Z,0.00
2018-08-13T00:17:11.818Z,0.00
2018-08-13T00:18:11.819Z,0.00
2018-08-13T00:19:11.818Z,0.00
2018-08-13T00:20:11.810Z,0.00
2018-08-13T00:21:11.808Z,0.00
2018-08-13T00:22:11.803Z,0.00
2018-08-13T00:23:11.804Z,0.00
2018-08-13T00:24:11.803Z,0.00
2018-08-13T00:25:11.796Z,0.00
2018-08-13T00:26:11.801Z,0.00
2018-08-13T00:27:11.792Z,0.00
2018-08-13T00:28:11.789Z,0.00
2018-08-13T00:29:11.789Z,0.00
2018-08-13T00:30:11.802Z,0.00
2018-08-13T00:31:11.791Z,0.00
2018-08-13T00:32:11.782Z,0.00
2018-08-13T00:33:11.792Z,0.00
2018-08-13T00:34:11.776Z,0.00
2018-08-13T00:35:11.776Z,0.00
2018-08-13T00:36:11.776Z,0.00
2018-08-13T00:37:11.771Z,0.00
2018-08-13T00:38:11.769Z,0.00
2018-08-13T00:39:11.770Z,0.00
2018-08-13T00:40:11.764Z,0.00
2018-08-13T00:41:11.757Z,0.00
2018-08-13T00:42:11.756Z,0.00
2018-08-13T00:43:11.754Z,0.00
2018-08-13T00:44:11.754Z,0.00
2018-08-13T00:45:11.748Z,0.00
2018-08-13T00:46:11.748Z,0.00
2018-08-13T00:47:11.750Z,0.00
2018-08-13T00:48:11.759Z,0.00
2018-08-13T00:49:11.737Z,0.00
2018-08-13T00:50:11.744Z,0.00
2018-08-13T00:51:11.738Z,0.00
2018-08-13T00:52:11.740Z,0.00
2018-08-13T00:53:11.732Z,0.00
2018-08-13T00:54:11.732Z,0.00
2018-08-13T00:55:11.724Z,0.00
2018-08-13T00:56:11.722Z,0.00
2018-08-13T00:57:11.724Z,0.00
2018-08-13T00:58:11.718Z,0.00
2018-08-13T00:59:11.718Z,0.00
2018-08-13T01:00:11.716Z,0.00
2018-08-13T01:01:11.712Z,0.00
2018-08-13T01:02:11.719Z,0.00
2018-08-13T01:03:11.711Z,0.00
2018-08-13T01:04:11.705Z,0.00
2018-08-13T01:05:11.704Z,0.00
2018-08-13T01:06:11.702Z,0.00
2018-08-13T01:07:11.698Z,0.00
2018-08-13T01:08:11.694Z,0.00
2018-08-13T01:09:11.691Z,0.00
2018-08-13T01:10:11.693Z,0.00
2018-08-13T01:11:11.687Z,0.00
2018-08-13T01:12:11.685Z,0.00
2018-08-13T01:13:11.686Z,0.00
2018-08-13T01:14:11.686Z,0.00
2018-08-13T01:15:11.677Z,0.00
2018-08-13T01:16:11.677Z,0.00
2018-08-13T01:17:11.676Z,0.00
2018-08-13T01:18:11.674Z,0.00
2018-08-13T01:19:11.675Z,0.00
2018-08-13T01:20:11.670Z,0.00
2018-08-13T01:21:11.672Z,0.00
2018-08-13T01:22:11.666Z,0.00
2018-08-13T01:23:11.665Z,0.00
2018-08-13T01:24:11.659Z,0.00
2018-08-13T01:25:11.658Z,0.00
2018-08-13T01:26:11.656Z,0.00
2018-08-13T01:27:11.653Z,0.00
2018-08-13T01:28:11.652Z,0.00
2018-08-13T01:29:11.649Z,0.00
2018-08-13T01:30:11.640Z,0.00
2018-08-13T01:31:11.654Z,0.00
2018-08-13T01:32:11.639Z,0.00
2018-08-13T01:33:11.640Z,0.00
2018-08-13T01:34:11.648Z,0.00
2018-08-13T01:35:11.637Z,0.00
2018-08-13T01:36:11.631Z,0.00
2018-08-13T01:37:11.626Z,0.00
2018-08-13T01:38:11.622Z,0.00
2018-08-13T01:39:11.622Z,0.00
2018-08-13T01:40:11.620Z,0.00
2018-08-13T01:41:11.611Z,0.00
2018-08-13T01:42:11.616Z,0.00
2018-08-13T01:43:11.614Z,0.00
2018-08-13T01:44:11.626Z,0.00
2018-08-13T01:45:11.605Z,0.00
2018-08-13T01:46:11.601Z,0.00
2018-08-13T01:47:11.600Z,0.00
2018-08-13T01:48:11.604Z,0.00
2018-08-13T01:49:11.605Z,0.00
2018-08-13T01:50:11.597Z,0.00
2018-08-13T01:51:11.593Z,0.00
2018-08-13T01:52:11.588Z,0.00
2018-08-13T01:53:11.583Z,0.00
2018-08-13T01:54:11.596Z,0.00
2018-08-13T01:55:11.580Z,0.00
2018-08-13T01:56:11.592Z,0.00
2018-08-13T01:57:11.579Z,0.00
2018-08-13T01:58:11.576Z,0.00
2018-08-13T01:59:11.572Z,0.00
2018-08-13T02:00:11.572Z,0.00
2018-08-13T02:01:11.568Z,0.00
2018-08-13T02:02:11.567Z,0.00
2018-08-13T02:03:11.567Z,0.00
2018-08-13T02:04:11.561Z,0.00
2018-08-13T02:05:11.556Z,0.00
2018-08-13T02:06:11.554Z,0.00
2018-08-13T02:07:11.560Z,0.00
2018-08-13T02:08:11.549Z,0.00
2018-08-13T02:09:11.554Z,0.00
2018-08-13T02:10:11.546Z,0.00
2018-08-13T02:11:11.547Z,0.00
2018-08-13T02:12:11.547Z,0.00
2018-08-13T02:13:11.538Z,0.00
2018-08-13T02:14:11.537Z,0.00
2018-08-13T02:15:11.535Z,0.00
2018-08-13T02:16:11.549Z,0.00
2018-08-13T02:17:11.533Z,0.00
2018-08-13T02:18:11.530Z,0.00
2018-08-13T02:19:11.527Z,0.00
2018-08-13T02:20:11.525Z,0.00
2018-08-13T02:21:11.518Z,0.00
2018-08-13T02:22:11.517Z,0.00
2018-08-13T02:23:11.516Z,0.00
2018-08-13T02:24:11.548Z,0.00
2018-08-13T02:25:11.511Z,0.00
2018-08-13T02:26:11.506Z,0.00
2018-08-13T02:27:11.507Z,0.00
2018-08-13T02:28:11.500Z,0.00
2018-08-13T02:29:11.501Z,0.00
2018-08-13T02:30:11.497Z,0.00
2018-08-13T02:31:11.497Z,0.00
2018-08-13T02:32:11.497Z,0.00
2018-08-13T02:33:11.494Z,0.00
2018-08-13T02:34:11.492Z,0.00
2018-08-13T02:35:11.489Z,0.00
2018-08-13T02:36:11.480Z,0.00
2018-08-13T02:37:11.480Z,0.00
2018-08-13T02:38:11.481Z,0.00
2018-08-13T02:39:11.550Z,0.00
2018-08-13T02:40:11.474Z,0.00
2018-08-13T02:41:11.471Z,0.00
2018-08-13T02:42:11.467Z,0.00
2018-08-13T02:43:11.464Z,0.00
2018-08-13T02:44:11.467Z,0.00
2018-08-13T02:45:11.458Z,0.00
2018-08-13T02:46:11.459Z,0.00
2018-08-13T02:47:11.462Z,0.00
2018-08-13T02:48:11.452Z,0.00
2018-08-13T02:49:11.450Z,0.00
2018-08-13T02:50:11.448Z,0.00
2018-08-13T02:51:11.445Z,0.00
2018-08-13T02:52:11.467Z,0.00
2018-08-13T02:53:11.439Z,0.00
2018-08-13T02:54:11.438Z,0.00
2018-08-13T02:55:11.441Z,0.00
2018-08-13T02:56:11.450Z,0.00
2018-08-13T02:57:11.429Z,0.00
2018-08-13T02:58:11.439Z,0.00
2018-08-13T02:59:11.424Z,0.00
2018-08-13T03:00:11.423Z,0.00
2018-08-13T03:01:11.425Z,0.00
2018-08-13T03:02:11.431Z,0.00
2018-08-13T03:03:11.484Z,0.00
2018-08-13T03:04:11.413Z,0.00
2018-08-13T03:05:11.409Z,0.00
2018-08-13T03:06:11.404Z,0.00
2018-08-13T03:07:11.402Z,0.00
2018-08-13T03:08:11.402Z,0.00
2018-08-13T03:09:11.394Z,0.00
2018-08-13T03:10:11.396Z,0.00
2018-08-13T03:11:11.392Z,0.00
2018-08-13T03:12:11.394Z,0.00
2018-08-13T03:13:11.390Z,0.00
2018-08-13T03:14:11.385Z,0.00
2018-08-13T03:15:11.381Z,0.00
2018-08-13T03:16:11.378Z,0.00
2018-08-13T03:17:11.377Z,0.00
2018-08-13T03:18:11.369Z,0.00
2018-08-13T03:19:11.368Z,0.00
2018-08-13T03:20:11.365Z,0.00
2018-08-13T03:21:11.363Z,0.00
2018-08-13T03:22:11.362Z,0.00
2018-08-13T03:23:11.361Z,0.00
2018-08-13T03:24:11.356Z,0.00
2018-08-13T03:25:11.349Z,0.00
2018-08-13T03:26:11.347Z,0.00
2018-08-13T03:27:11.343Z,0.00
2018-08-13T03:28:11.342Z,0.00
2018-08-13T03:29:11.340Z,0.00
2018-08-13T03:30:11.338Z,0.00
2018-08-13T03:31:11.332Z,0.00
2018-08-13T03:32:11.333Z,0.00
2018-08-13T03:33:11.336Z,0.00
2018-08-13T03:34:11.326Z,0.00
2018-08-13T03:35:11.328Z,0.00
2018-08-13T03:36:11.323Z,0.00
2018-08-13T03:37:11.319Z,0.00
2018-08-13T03:38:11.319Z,0.00
2018-08-13T03:39:11.317Z,0.00
2018-08-13T03:40:11.309Z,4.00
2018-08-13T03:41:11.306Z,4.00
2018-08-13T03:42:11.304Z,4.00
2018-08-13T03:43:11.305Z,4.00
2018-08-13T03:44:11.309Z,4.00
2018-08-13T03:45:11.300Z,4.00
2018-08-13T03:46:11.302Z,4.00
2018-08-13T03:47:11.295Z,8.00
2018-08-13T03:48:11.297Z,4.00
2018-08-13T03:49:11.289Z,8.00
2018-08-13T03:50:11.287Z,4.00
2018-08-13T03:51:11.291Z,8.00
2018-08-13T03:52:11.299Z,8.00
2018-08-13T03:53:11.290Z,8.00
2018-08-13T03:54:11.307Z,12.00
2018-08-13T03:55:11.319Z,16.00
2018-08-13T03:56:11.269Z,16.00
2018-08-13T03:57:11.274Z,20.00
2018-08-13T03:58:11.292Z,24.00
2018-08-13T03:59:11.263Z,28.00
2018-08-13T04:00:11.264Z,32.00
2018-08-13T04:01:11.258Z,40.00
2018-08-13T04:02:11.252Z,48.00
2018-08-13T04:03:11.250Z,56.00
2018-08-13T04:04:11.247Z,64.00
2018-08-13T04:05:11.246Z,68.00
2018-08-13T04:06:11.243Z,80.00
2018-08-13T04:07:11.245Z,84.00
2018-08-13T04:08:11.233Z,88.00
2018-08-13T04:09:11.233Z,96.00
2018-08-13T04:10:11.228Z,108.00
2018-08-13T04:11:11.226Z,108.00
2018-08-13T04:12:11.226Z,108.00
2018-08-13T04:13:11.219Z,116.00
2018-08-13T04:14:11.220Z,116.00
2018-08-13T04:15:11.219Z,124.00
2018-08-13T04:16:11.211Z,132.00
2018-08-13T04:17:11.219Z,140.00
2018-08-13T04:18:11.229Z,152.00
2018-08-13T04:19:11.207Z,168.00
2018-08-13T04:20:11.205Z,180.00
2018-08-13T04:21:11.207Z,196.00
2018-08-13T04:22:11.199Z,220.00
2018-08-13T04:23:11.199Z,244.00
2018-08-13T04:24:11.191Z,276.00
2018-08-13T04:25:11.188Z,316.00
2018-08-13T04:26:11.191Z,368.00
2018-08-13T04:27:11.181Z,420.00
2018-08-13T04:28:11.186Z,472.00
2018-08-13T04:29:11.184Z,528.00
2018-08-13T04:30:11.180Z,596.00
2018-08-13T04:31:11.172Z,684.00
2018-08-13T04:32:11.170Z,796.00
2018-08-13T04:33:11.169Z,936.00
2018-08-13T04:34:11.165Z,1108.00
2018-08-13T04:35:11.167Z,1308.00
2018-08-13T04:36:11.157Z,1520.00
2018-08-13T04:37:11.156Z,1696.00
2018-08-13T04:38:11.171Z,1840.00
2018-08-13T04:39:11.154Z,1956.00
2018-08-13T04:40:11.148Z,2040.00
2018-08-13T04:41:11.147Z,2164.00
2018-08-13T04:42:11.144Z,2316.00
2018-08-13T04:43:11.143Z,2392.00
2018-08-13T04:44:11.142Z,2368.00
2018-08-13T04:45:11.133Z,2216.00
2018-08-13T04:46:11.136Z,2008.00
2018-08-13T04:47:11.129Z,1828.00
2018-08-13T04:48:11.133Z,1764.00
2018-08-13T04:49:11.127Z,1792.00
2018-08-13T04:50:11.124Z,1736.00
2018-08-13T04:51:11.118Z,1636.00
2018-08-13T04:52:11.122Z,1492.00
2018-08-13T04:53:11.119Z,1312.00
2018-08-13T04:54:11.110Z,1196.00
2018-08-13T04:55:11.110Z,1148.00
2018-08-13T04:56:11.108Z,1132.00
2018-08-13T04:57:11.108Z,1120.00
2018-08-13T04:58:11.104Z,1076.00
2018-08-13T04:59:11.102Z,788.00
2018-08-13T05:00:11.093Z,708.00
2018-08-13T05:01:11.109Z,656.00
2018-08-13T05:02:11.093Z,628.00
2018-08-13T05:03:11.094Z,620.00
2018-08-13T05:04:11.088Z,628.00
2018-08-13T05:05:11.083Z,656.00
2018-08-13T05:06:11.082Z,720.00
2018-08-13T05:07:11.077Z,836.00
2018-08-13T05:08:11.075Z,976.00
2018-08-13T05:09:11.091Z,1096.00
2018-08-13T05:10:11.072Z,1132.00
2018-08-13T05:11:11.065Z,1168.00
2018-08-13T05:12:11.070Z,1268.00
2018-08-13T05:13:11.060Z,1408.00
2018-08-13T05:14:11.061Z,1500.00
2018-08-13T05:15:11.062Z,1528.00
2018-08-13T05:16:11.054Z,1552.00
2018-08-13T05:17:11.053Z,1576.00
2018-08-13T05:18:11.052Z,1616.00
2018-08-13T05:19:11.047Z,1676.00
2018-08-13T05:20:11.044Z,1744.00
2018-08-13T05:21:11.057Z,1812.00
2018-08-13T05:22:11.036Z,1876.00
2018-08-13T05:23:11.042Z,1948.00
2018-08-13T05:24:11.036Z,2060.00
2018-08-13T05:25:11.034Z,2172.00
2018-08-13T05:26:11.030Z,2248.00
2018-08-13T05:27:11.023Z,2296.00
2018-08-13T05:28:11.025Z,2304.00
2018-08-13T05:29:11.021Z,2260.00
2018-08-13T05:30:11.063Z,2200.00
2018-08-13T05:31:11.015Z,2152.00
2018-08-13T05:32:11.019Z,2116.00
2018-08-13T05:33:11.012Z,2092.00
2018-08-13T05:34:11.019Z,2076.00
2018-08-13T05:35:11.029Z,2044.00
2018-08-13T05:36:11.007Z,1992.00
2018-08-13T05:37:10.999Z,1928.00
2018-08-13T05:38:11.031Z,1896.00
2018-08-13T05:39:11.011Z,1948.00
2018-08-13T05:40:10.991Z,1936.00
2018-08-13T05:41:10.986Z,1976.00
2018-08-13T05:42:10.993Z,2028.00
2018-08-13T05:43:10.983Z,2096.00
2018-08-13T05:44:10.982Z,2164.00
2018-08-13T05:45:10.988Z,2236.00
2018-08-13T05:46:10.976Z,2300.00
2018-08-13T05:47:10.977Z,2376.00
2018-08-13T05:48:10.977Z,2504.00
2018-08-13T05:49:10.966Z,2648.00
2018-08-13T05:50:10.966Z,2812.00
2018-08-13T05:51:10.960Z,2940.00
2018-08-13T05:52:10.963Z,3004.00
2018-08-13T05:53:10.957Z,2956.00
2018-08-13T05:54:10.960Z,2876.00
2018-08-13T05:55:10.954Z,2796.00
2018-08-13T05:56:10.970Z,2760.00
2018-08-13T05:57:10.947Z,2744.00
2018-08-13T05:58:10.945Z,2716.00
2018-08-13T05:59:10.945Z,2712.00
2018-08-13T06:00:10.945Z,2716.00
2018-08-13T06:01:10.937Z,2696.00
2018-08-13T06:02:10.943Z,2636.00
2018-08-13T06:03:10.945Z,2608.00
2018-08-13T06:04:10.927Z,2700.00
2018-08-13T06:05:10.927Z,2856.00
2018-08-13T06:06:10.925Z,3020.00
2018-08-13T06:07:10.929Z,3104.00
2018-08-13T06:08:10.921Z,3112.00
2018-08-13T06:09:10.917Z,3104.00
2018-08-13T06:10:10.930Z,3080.00
2018-08-13T06:11:10.914Z,3008.00
2018-08-13T06:12:10.911Z,2928.00
2018-08-13T06:13:10.909Z,2868.00
2018-08-13T06:14:10.906Z,2844.00
2018-08-13T06:15:10.900Z,2880.00
2018-08-13T06:16:10.899Z,2964.00
2018-08-13T06:17:10.895Z,3108.00
2018-08-13T06:18:10.973Z,3304.00
2018-08-13T06:19:10.895Z,3568.00
2018-08-13T06:20:10.893Z,3900.00
2018-08-13T06:21:10.897Z,4292.00
2018-08-13T06:22:10.887Z,4704.00
2018-08-13T06:23:10.886Z,5148.00
2018-08-13T06:24:10.945Z,5624.00
2018-08-13T06:25:10.883Z,6108.00
2018-08-13T06:26:10.875Z,6608.00
2018-08-13T06:27:10.877Z,7020.00
2018-08-13T06:28:10.931Z,7344.00
2018-08-13T06:29:10.869Z,7576.00
2018-08-13T06:30:10.891Z,7748.00
2018-08-13T06:31:10.865Z,7816.00
2018-08-13T06:32:10.863Z,7800.00
2018-08-13T06:33:10.857Z,7648.00
2018-08-13T06:34:10.857Z,7200.00
2018-08-13T06:35:10.857Z,6096.00
2018-08-13T06:36:10.853Z,4512.00
2018-08-13T06:37:10.893Z,3560.00
2018-08-13T06:38:10.847Z,3176.00
2018-08-13T06:39:10.846Z,3336.00
2018-08-13T06:40:10.841Z,3880.00
2018-08-13T06:41:10.838Z,4260.00
2018-08-13T06:42:10.840Z,4564.00
2018-08-13T06:43:10.836Z,4852.00
2018-08-13T06:44:10.835Z,5248.00
2018-08-13T06:45:10.831Z,5424.00
2018-08-13T06:46:10.838Z,5340.00
2018-08-13T06:47:10.920Z,5092.00
2018-08-13T06:48:10.823Z,5260.00
2018-08-13T06:49:10.819Z,5956.00
2018-08-13T06:50:10.813Z,6664.00
2018-08-13T06:51:10.813Z,7180.00
2018-08-13T06:52:10.812Z,7244.00
2018-08-13T06:53:10.808Z,7260.00
2018-08-13T06:54:10.809Z,7248.00
2018-08-13T06:55:10.806Z,7312.00
2018-08-13T06:56:10.816Z,7076.00
2018-08-13T06:57:10.799Z,6388.00
2018-08-13T06:58:10.801Z,5568.00
2018-08-13T06:59:10.807Z,5036.00
2018-08-13T07:00:10.794Z,4792.00
2018-08-13T07:01:10.792Z,4716.00
2018-08-13T07:02:10.796Z,4928.00
2018-08-13T07:03:10.822Z,5300.00
2018-08-13T07:04:10.790Z,5728.00
2018-08-13T07:05:10.791Z,6240.00
2018-08-13T07:06:10.929Z,7016.00
2018-08-13T07:07:10.778Z,7676.00
2018-08-13T07:08:10.802Z,7932.00
2018-08-13T07:09:10.781Z,7576.00
2018-08-13T07:10:10.770Z,7216.00
2018-08-13T07:11:10.773Z,6964.00
2018-08-13T07:12:10.770Z,6668.00
2018-08-13T07:13:10.772Z,6276.00
2018-08-13T07:14:10.796Z,6180.00
2018-08-13T07:15:10.785Z,5984.00
2018-08-13T07:16:10.795Z,5584.00
2018-08-13T07:17:10.769Z,5360.00
2018-08-13T07:18:10.753Z,4960.00
2018-08-13T07:19:10.783Z,4296.00
2018-08-13T07:20:10.759Z,3572.00
2018-08-13T07:21:10.758Z,3176.00
2018-08-13T07:22:10.765Z,3308.00
2018-08-13T07:23:10.742Z,3632.00
2018-08-13T07:24:10.745Z,3928.00
2018-08-13T07:25:10.752Z,4128.00
2018-08-13T07:26:10.751Z,4120.00
2018-08-13T07:27:10.741Z,4184.00
2018-08-13T07:28:10.791Z,4440.00
2018-08-13T07:29:10.743Z,4696.00
2018-08-13T07:30:10.730Z,4688.00
2018-08-13T07:31:10.727Z,4604.00
2018-08-13T07:32:10.753Z,4516.00
2018-08-13T07:33:10.718Z,4556.00
2018-08-13T07:34:10.719Z,4512.00
2018-08-13T07:35:10.732Z,4820.00
2018-08-13T07:36:10.713Z,4796.00
2018-08-13T07:37:10.727Z,4900.00
2018-08-13T07:38:10.708Z,5248.00
2018-08-13T07:39:10.745Z,5712.00
2018-08-13T07:40:10.703Z,5972.00
2018-08-13T07:41:10.699Z,5960.00
2018-08-13T07:42:10.700Z,5644.00
2018-08-13T07:43:10.696Z,5376.00
2018-08-13T07:44:10.693Z,5380.00
2018-08-13T07:45:10.686Z,5416.00
2018-08-13T07:46:10.689Z,5488.00
2018-08-13T07:47:10.699Z,5532.00
2018-08-13T07:48:10.689Z,5644.00
2018-08-13T07:49:10.680Z,5796.00
2018-08-13T07:50:10.680Z,6012.00
2018-08-13T07:51:10.672Z,6276.00
2018-08-13T07:52:10.676Z,6860.00
2018-08-13T07:53:10.673Z,7888.00
2018-08-13T07:54:10.671Z,9264.00
2018-08-13T07:55:10.694Z,10708.00
2018-08-13T07:56:10.662Z,12188.00
2018-08-13T07:57:10.665Z,13620.00
2018-08-13T07:58:10.665Z,14556.00
2018-08-13T07:59:10.676Z,14984.00
2018-08-13T08:00:10.654Z,15104.00
2018-08-13T08:01:10.651Z,15532.00
2018-08-13T08:02:10.642Z,16348.00
2018-08-13T08:03:10.639Z,17312.00
2018-08-13T08:04:10.644Z,18048.00
2018-08-13T08:05:10.638Z,18432.00
2018-08-13T08:06:10.632Z,18752.00
2018-08-13T08:07:10.628Z,19392.00
2018-08-13T08:08:10.626Z,20128.00
2018-08-13T08:09:10.643Z,19424.00
2018-08-13T08:10:10.631Z,18752.00
2018-08-13T08:11:10.623Z,17760.00
2018-08-13T08:12:10.625Z,17184.00
2018-08-13T08:13:10.620Z,18784.00
2018-08-13T08:14:10.611Z,18304.00
2018-08-13T08:15:10.614Z,17408.00
2018-08-13T08:16:10.614Z,18016.00
2018-08-13T08:17:10.611Z,21024.00
2018-08-13T08:18:10.605Z,17824.00
2018-08-13T08:19:10.630Z,21760.00
2018-08-13T08:20:10.609Z,19296.00
2018-08-13T08:21:10.604Z,19040.00
2018-08-13T08:22:10.638Z,15784.00
2018-08-13T08:23:10.592Z,17056.00
2018-08-13T08:24:10.597Z,17312.00
2018-08-13T08:25:10.592Z,16300.00
2018-08-13T08:26:10.589Z,16608.00
2018-08-13T08:27:10.590Z,16460.00
2018-08-13T08:28:10.589Z,15916.00
2018-08-13T08:29:10.590Z,15380.00
2018-08-13T08:30:10.590Z,15180.00
2018-08-13T08:31:10.585Z,14604.00
2018-08-13T08:32:10.584Z,13936.00
2018-08-13T08:33:10.587Z,13332.00
2018-08-13T08:34:10.573Z,12420.00
2018-08-13T08:35:10.578Z,11600.00
2018-08-13T08:36:10.575Z,11184.00
2018-08-13T08:37:10.569Z,11228.00
2018-08-13T08:38:10.567Z,11972.00
2018-08-13T08:39:10.570Z,12872.00
2018-08-13T08:40:10.564Z,12264.00
2018-08-13T08:41:10.560Z,10360.00
2018-08-13T08:42:10.557Z,8284.00
2018-08-13T08:43:10.558Z,7332.00
2018-08-13T08:44:10.569Z,6832.00
2018-08-13T08:45:10.556Z,6724.00
2018-08-13T08:46:10.550Z,6992.00
2018-08-13T08:47:10.550Z,7840.00
2018-08-13T08:48:10.551Z,9072.00
2018-08-13T08:49:10.545Z,10032.00
2018-08-13T08:50:10.543Z,10304.00
2018-08-13T08:51:10.545Z,9900.00
2018-08-13T08:52:10.540Z,8848.00
2018-08-13T08:53:10.591Z,8212.00
2018-08-13T08:54:10.539Z,8440.00
2018-08-13T08:55:10.535Z,9016.00
2018-08-13T08:56:10.542Z,9312.00
2018-08-13T08:57:10.529Z,9220.00
2018-08-13T08:58:10.525Z,8740.00
2018-08-13T08:59:10.523Z,8692.00
2018-08-13T09:00:10.528Z,9252.00
2018-08-13T09:01:10.523Z,9980.00
2018-08-13T09:02:10.521Z,10572.00
2018-08-13T09:03:10.520Z,11188.00
2018-08-13T09:04:10.517Z,11676.00
2018-08-13T09:05:10.510Z,11780.00
2018-08-13T09:06:10.507Z,11496.00
2018-08-13T09:07:10.515Z,10800.00
2018-08-13T09:08:10.517Z,10020.00
2018-08-13T09:09:10.506Z,9804.00
2018-08-13T09:10:10.503Z,10096.00
2018-08-13T09:11:10.512Z,10708.00
2018-08-13T09:12:10.499Z,11168.00
2018-08-13T09:13:10.494Z,11412.00
2018-08-13T09:14:10.550Z,10988.00
2018-08-13T09:15:10.492Z,9860.00
2018-08-13T09:16:10.489Z,9124.00
2018-08-13T09:17:10.498Z,8892.00
2018-08-13T09:18:10.483Z,9148.00
2018-08-13T09:19:10.558Z,10092.00
2018-08-13T09:20:10.489Z,11232.00
2018-08-13T09:21:10.533Z,12256.00
2018-08-13T09:22:10.478Z,12728.00
2018-08-13T09:23:10.485Z,12768.00
2018-08-13T09:24:10.477Z,12540.00
2018-08-13T09:25:10.479Z,12388.00
2018-08-13T09:26:10.469Z,12500.00
2018-08-13T09:27:10.465Z,12496.00
2018-08-13T09:28:10.462Z,12088.00
2018-08-13T09:29:10.484Z,11340.00
2018-08-13T09:30:10.460Z,9976.00
2018-08-13T09:31:10.467Z,8872.00
2018-08-13T09:32:10.455Z,8472.00
2018-08-13T09:33:10.452Z,8960.00
2018-08-13T09:34:10.459Z,9636.00
2018-08-13T09:35:10.453Z,9944.00
2018-08-13T09:36:10.444Z,9992.00
2018-08-13T09:37:10.451Z,10108.00
2018-08-13T09:38:10.448Z,9888.00
2018-08-13T09:39:10.439Z,9072.00
2018-08-13T09:40:10.438Z,8268.00
2018-08-13T09:41:10.437Z,8296.00
2018-08-13T09:42:10.432Z,8548.00
2018-08-13T09:43:10.428Z,8024.00
2018-08-13T09:44:10.430Z,7092.00
2018-08-13T09:45:10.429Z,6604.00
2018-08-13T09:46:10.428Z,6376.00
2018-08-13T09:47:10.428Z,6580.00
2018-08-13T09:48:10.509Z,6884.00
2018-08-13T09:49:10.417Z,7224.00
2018-08-13T09:50:10.428Z,8256.00
2018-08-13T09:51:10.413Z,10216.00
2018-08-13T09:52:10.423Z,12408.00
2018-08-13T09:53:10.422Z,13680.00
2018-08-13T09:54:10.419Z,14464.00
2018-08-13T09:55:10.407Z,14108.00
2018-08-13T09:56:10.413Z,13464.00
2018-08-13T09:57:10.407Z,12852.00
2018-08-13T09:58:10.404Z,14228.00
2018-08-13T09:59:10.402Z,17536.00
2018-08-13T10:00:10.416Z,19808.00
2018-08-13T10:01:10.405Z,19680.00
2018-08-13T10:02:10.393Z,23552.00
2018-08-13T10:03:10.397Z,23776.00
2018-08-13T10:04:10.388Z,39040.00
2018-08-13T10:05:10.390Z,55072.00
2018-08-13T10:06:10.393Z,59328.00
2018-08-13T10:07:10.389Z,35872.00
2018-08-13T10:08:10.385Z,29152.00
2018-08-13T10:09:10.414Z,32192.00
2018-08-13T10:10:10.384Z,69696.00
2018-08-13T10:11:10.395Z,37216.00
2018-08-13T10:12:10.430Z,42976.00
2018-08-13T10:13:10.387Z,89440.00
2018-08-13T10:14:10.385Z,95776.00
2018-08-13T10:15:10.382Z,78720.00
2018-08-13T10:16:10.378Z,21152.00
2018-08-13T10:17:10.379Z,98912.00
2018-08-13T10:18:10.381Z,94784.00
2018-08-13T10:19:10.437Z,102656.00
2018-08-13T10:20:10.387Z,85792.00
2018-08-13T10:21:10.389Z,73728.00
2018-08-13T10:22:10.422Z,92384.00
2018-08-13T10:23:10.388Z,95776.00
2018-08-13T10:24:10.390Z,101792.00
2018-08-13T10:25:10.392Z,54176.00
2018-08-13T10:26:10.399Z,36352.00
2018-08-13T10:27:10.409Z,26336.00
2018-08-13T10:28:10.457Z,23584.00
2018-08-13T10:29:10.405Z,25984.00
2018-08-13T10:30:10.410Z,40288.00
2018-08-13T10:31:10.411Z,23808.00
2018-08-13T10:32:10.413Z,35552.00
2018-08-13T10:33:10.421Z,23072.00
2018-08-13T10:34:10.430Z,34336.00
2018-08-13T10:35:10.425Z,78016.00
2018-08-13T10:36:10.436Z,96864.00
2018-08-13T10:37:10.429Z,73344.00
2018-08-13T10:38:10.446Z,95360.00
2018-08-13T10:39:10.436Z,87232.00
2018-08-13T10:40:10.440Z,96032.00
2018-08-13T10:41:10.446Z,50496.00
2018-08-13T10:42:10.449Z,95424.00
2018-08-13T10:43:10.449Z,92384.00
2018-08-13T10:44:10.456Z,91040.00
2018-08-13T10:45:10.459Z,90720.00
2018-08-13T10:46:10.464Z,90400.00
2018-08-13T10:47:10.470Z,85408.00
2018-08-13T10:48:11.130Z,101440.00
2018-08-13T10:49:10.481Z,52864.00
2018-08-13T10:50:10.486Z,40224.00
2018-08-13T10:51:10.494Z,46016.00
2018-08-13T10:52:10.498Z,45504.00
2018-08-13T10:53:10.506Z,36832.00
2018-08-13T10:54:10.512Z,39680.00
2018-08-13T10:55:10.528Z,34240.00
2018-08-13T10:56:10.549Z,42112.00
2018-08-13T10:57:10.525Z,33920.00
2018-08-13T10:58:10.525Z,26080.00
2018-08-13T10:59:10.531Z,28256.00
2018-08-13T11:00:10.545Z,28928.00
2018-08-13T11:01:10.643Z,30944.00
2018-08-13T11:02:10.544Z,34368.00
2018-08-13T11:03:10.545Z,40928.00
2018-08-13T11:04:10.550Z,24896.00
2018-08-13T11:05:10.554Z,21216.00
2018-08-13T11:06:10.562Z,19520.00
2018-08-13T11:07:10.564Z,22304.00
2018-08-13T11:08:10.564Z,37120.00
2018-08-13T11:09:10.567Z,63072.00
2018-08-13T11:10:10.608Z,54080.00
2018-08-13T11:11:10.580Z,51104.00
2018-08-13T11:12:10.585Z,54784.00
2018-08-13T11:13:10.583Z,45888.00
2018-08-13T11:14:10.588Z,51616.00
2018-08-13T11:15:10.593Z,59072.00
2018-08-13T11:16:10.619Z,77280.00
2018-08-13T11:17:10.606Z,75104.00
2018-08-13T11:18:10.605Z,89664.00
2018-08-13T11:19:10.608Z,56384.00
2018-08-13T11:20:10.610Z,37216.00
2018-08-13T11:21:10.619Z,26528.00
2018-08-13T11:22:10.624Z,29248.00
2018-08-13T11:23:10.622Z,26880.00
2018-08-13T11:24:10.645Z,26880.00
2018-08-13T11:25:10.647Z,25888.00
2018-08-13T11:26:10.639Z,27136.00
2018-08-13T11:27:10.640Z,29632.00
2018-08-13T11:28:10.647Z,40736.00
2018-08-13T11:29:10.701Z,43712.00
2018-08-13T11:30:10.651Z,67072.00
2018-08-13T11:31:10.705Z,85664.00
2018-08-13T11:32:10.654Z,118720.00
2018-08-13T11:33:10.676Z,45792.00
2018-08-13T11:34:10.659Z,34976.00
2018-08-13T11:35:10.663Z,38112.00
2018-08-13T11:36:10.669Z,42528.00
2018-08-13T11:37:10.672Z,30144.00
2018-08-13T11:38:10.679Z,29120.00
2018-08-13T11:39:10.689Z,47936.00
2018-08-13T11:40:10.687Z,58592.00
2018-08-13T11:41:10.687Z,45440.00
2018-08-13T11:42:10.689Z,101600.00
2018-08-13T11:43:10.698Z,74624.00
2018-08-13T11:44:10.695Z,44832.00
2018-08-13T11:45:10.697Z,35008.00
2018-08-13T11:46:10.705Z,35520.00
2018-08-13T11:47:10.716Z,46592.00
2018-08-13T11:48:10.712Z,40704.00
2018-08-13T11:49:10.730Z,80000.00
2018-08-13T11:50:11.683Z,69536.00
2018-08-13T11:51:10.735Z,74656.00
2018-08-13T11:52:10.731Z,27776.00
2018-08-13T11:53:10.740Z,66528.00
2018-08-13T11:54:10.728Z,45472.00
2018-08-13T11:55:10.740Z,34976.00
2018-08-13T11:56:11.683Z,59392.00
2018-08-13T11:57:10.746Z,43040.00
2018-08-13T11:58:10.748Z,74720.00
2018-08-13T11:59:10.757Z,43264.00
2018-08-13T12:00:10.765Z,88992.00
2018-08-13T12:01:10.787Z,116480.00
2018-08-13T12:02:10.823Z,113152.00
2018-08-13T12:03:10.786Z,100672.00
2018-08-13T12:04:10.768Z,88544.00
2018-08-13T12:05:10.799Z,111488.00
2018-08-13T12:06:10.777Z,87680.00
2018-08-13T12:07:10.784Z,119712.00
2018-08-13T12:08:10.786Z,91104.00
2018-08-13T12:09:10.811Z,48448.00
2018-08-13T12:10:10.796Z,54848.00
2018-08-13T12:11:10.807Z,17984.00
2018-08-13T12:12:10.814Z,14732.00
2018-08-13T12:13:10.818Z,26624.00
2018-08-13T12:14:10.899Z,92864.00
2018-08-13T12:15:10.822Z,24800.00
2018-08-13T12:16:10.824Z,41696.00
2018-08-13T12:17:10.825Z,27520.00
2018-08-13T12:18:10.832Z,34912.00
2018-08-13T12:19:10.839Z,34496.00
2018-08-13T12:20:10.840Z,36288.00
2018-08-13T12:21:10.845Z,40480.00